Time;durP1;ratioP1;P1;durP2;ratioP2;P2;SDS_P1;SDS_P2;PMS_P1;PMS_P2;Temp;Humidity;BMP_temperature;BMP_pressure;BME280_temperature;BME280_humidity;BME280_pressure;Samples;Min_cycle;Max_cycle;Signal;HPM_P1;HPM_P2
2021/05/31 06:36:14;;;;;;;14.00;6.78;;;22.70;90.70;;;;;;5107555;27;20157;-66
2021/05/31 06:38:40;;;;;;;14.20;6.55;;;22.80;91.00;;;;;;5104847;28;20417;-64
2021/05/31 06:41:05;;;;;;;15.23;6.75;;;22.90;90.80;;;;;;5089015;28;20543;-64
2021/05/31 06:43:32;;;;;;;13.60;6.55;;;23.00;90.60;;;;;;5088748;28;20086;-64
2021/05/31 06:45:59;;;;;;;14.07;5.85;;;23.00;90.30;;;;;;5088861;28;20028;-64
2021/05/31 06:48:25;;;;;;;17.52;6.60;;;23.20;90.10;;;;;;5089119;28;20020;-64
2021/05/31 06:50:53;;;;;;;17.38;6.85;;;23.30;89.50;;;;;;5088532;28;20483;-64
2021/05/31 06:53:19;;;;;;;18.48;6.70;;;23.20;89.60;;;;;;5088666;28;20028;-65
2021/05/31 06:55:45;;;;;;;20.48;6.65;;;23.40;89.60;;;;;;5088295;28;20527;-65
2021/05/31 06:58:11;;;;;;;15.25;6.40;;;23.50;89.30;;;;;;5090324;28;20650;-65
2021/05/31 07:00:38;;;;;;;17.10;6.43;;;23.40;89.20;;;;;;5095746;28;20115;-66
2021/05/31 07:03:04;;;;;;;16.25;6.50;;;23.60;88.50;;;;;;5100683;28;20028;-65
2021/05/31 07:05:30;;;;;;;17.98;5.82;;;23.60;88.30;;;;;;5108389;28;20115;-66
2021/05/31 07:07:56;;;;;;;19.27;6.05;;;23.60;89.10;;;;;;5109030;28;20041;-65
2021/05/31 07:10:27;;;;;;;22.98;6.22;;;23.70;87.80;;;;;;5090774;28;20036;-65
2021/05/31 07:12:53;;;;;;;19.02;6.47;;;23.80;87.90;;;;;;5088851;28;20070;-66
2021/05/31 07:15:20;;;;;;;17.25;6.03;;;23.70;88.10;;;;;;5089147;28;20431;-66
2021/05/31 07:17:47;;;;;;;17.88;5.68;;;23.80;87.70;;;;;;5100896;28;20361;-66
2021/05/31 07:20:14;;;;;;;17.80;5.05;;;23.80;87.80;;;;;;5086852;28;20029;-67
2021/05/31 07:22:43;;;;;;;14.05;5.30;;;23.90;86.60;;;;;;5086754;28;20024;-67
2021/05/31 07:25:10;;;;;;;19.70;5.50;;;24.00;87.70;;;;;;5089049;28;20030;-68
2021/05/31 07:27:36;;;;;;;13.30;4.88;;;24.00;87.00;;;;;;5087963;28;20024;-69
2021/05/31 07:30:04;;;;;;;9.93;4.50;;;24.10;87.20;;;;;;5087862;28;20031;-66
2021/05/31 07:32:30;;;;;;;15.40;4.78;;;24.10;87.10;;;;;;5067441;28;20021;-69
2021/05/31 07:34:55;;;;;;;15.20;4.45;;;24.10;87.40;;;;;;5067679;28;20047;-68
2021/05/31 07:37:21;;;;;;;9.10;4.60;;;24.10;87.40;;;;;;5067625;28;20464;-71
2021/05/31 07:39:47;;;;;;;10.63;4.68;;;24.10;87.70;;;;;;5067109;28;20366;-64
2021/05/31 07:42:12;;;;;;;11.75;4.80;;;24.30;87.70;;;;;;5067444;28;20025;-65
2021/05/31 07:44:38;;;;;;;8.95;4.47;;;24.40;87.60;;;;;;5080998;28;20027;-65
2021/05/31 07:47:04;;;;;;;10.88;4.40;;;24.40;87.50;;;;;;5077560;28;20060;-65
2021/05/31 07:49:30;;;;;;;10.55;4.25;;;24.50;87.40;;;;;;5073317;28;20099;-70
2021/05/31 07:51:56;;;;;;;7.15;3.78;;;24.40;88.20;;;;;;5075439;28;20025;-70
2021/05/31 07:54:25;;;;;;;11.05;4.15;;;24.50;87.60;;;;;;5073802;28;20032;-69
2021/05/31 07:56:50;;;;;;;9.10;4.72;;;24.50;87.90;;;;;;5074083;28;20091;-68
2021/05/31 07:59:16;;;;;;;11.13;3.90;;;24.40;87.80;;;;;;5074115;28;20017;-70
2021/05/31 08:01:42;;;;;;;7.10;4.03;;;24.50;87.70;;;;;;5073768;28;20468;-64
2021/05/31 08:04:08;;;;;;;8.43;4.15;;;24.50;87.80;;;;;;5074570;28;20056;-70
2021/05/31 08:06:34;;;;;;;7.55;3.95;;;24.50;87.80;;;;;;5073202;28;20078;-67
2021/05/31 08:09:01;;;;;;;9.80;4.32;;;24.60;87.80;;;;;;5074087;28;20031;-65
2021/05/31 08:11:27;;;;;;;9.70;4.22;;;24.50;87.90;;;;;;5073836;28;20041;-69
2021/05/31 08:13:53;;;;;;;8.93;3.83;;;24.50;88.10;;;;;;5077487;28;20073;-65
2021/05/31 08:16:19;;;;;;;5.97;3.55;;;24.50;88.30;;;;;;5094128;28;20349;-64
2021/05/31 08:18:45;;;;;;;7.45;4.10;;;24.40;88.30;;;;;;5086585;28;20021;-71
2021/05/31 08:21:11;;;;;;;7.43;3.80;;;24.40;88.50;;;;;;5073792;28;20371;-73
2021/05/31 08:23:38;;;;;;;8.20;3.83;;;24.40;88.50;;;;;;5073220;28;20099;-67
2021/05/31 08:26:03;;;;;;;6.20;3.50;;;24.40;88.50;;;;;;5073199;28;20102;-63
2021/05/31 08:28:29;;;;;;;6.00;3.35;;;24.40;88.80;;;;;;5073271;28;20020;-65
2021/05/31 08:30:55;;;;;;;7.30;3.55;;;24.30;88.80;;;;;;5073745;28;20032;-63
2021/05/31 08:33:20;;;;;;;8.65;4.10;;;24.30;89.10;;;;;;5073300;28;20074;-73
2021/05/31 08:35:47;;;;;;;7.07;3.60;;;24.20;89.10;;;;;;5072933;28;20055;-73
2021/05/31 08:38:13;;;;;;;7.70;3.38;;;24.20;89.40;;;;;;5073357;28;20075;-63
2021/05/31 08:40:39;;;;;;;6.45;3.85;;;24.20;89.60;;;;;;5073046;28;20020;-64
2021/05/31 08:43:05;;;;;;;6.65;3.97;;;24.20;89.60;;;;;;5073141;28;20033;-64
2021/05/31 08:45:32;;;;;;;8.82;3.67;;;24.20;89.60;;;;;;5085650;28;20113;-69
2021/05/31 08:47:59;;;;;;;6.88;3.78;;;24.20;90.30;;;;;;5052933;28;20025;-66
2021/05/31 08:50:33;;;;;;;6.30;3.65;;;24.20;89.80;;;;;;5053454;28;20033;-70
2021/05/31 08:52:59;;;;;;;;;;;24.20;89.80;;;;;;5070924;28;20523;-68
2021/05/31 08:55:27;;;;;;;8.00;3.67;;;23.90;90.00;;;;;;5073263;28;19908;-71
2021/05/31 08:57:54;;;;;;;7.78;3.70;;;24.00;90.10;;;;;;5072527;28;20360;-63
2021/05/31 09:00:24;;;;;;;5.90;2.95;;;24.00;90.10;;;;;;5072512;28;20035;-69
2021/05/31 09:02:51;;;;;;;10.70;3.42;;;24.00;90.10;;;;;;5072717;28;20028;-63
2021/05/31 09:05:33;;;;;;;7.20;3.35;;;23.90;90.20;;;;;;5072861;28;20064;-63
2021/05/31 09:08:15;;;;;;;5.38;3.55;;;24.10;90.20;;;;;;5072862;28;20043;-63
2021/05/31 09:10:44;;;;;;;5.32;3.28;;;24.20;90.00;;;;;;5072396;28;20385;-63
2021/05/31 09:13:28;;;;;;;4.78;2.97;;;24.20;90.00;;;;;;5072770;28;20119;-65
2021/05/31 09:16:06;;;;;;;;;;;24.20;90.00;;;;;;5059854;28;20027;-64
2021/05/31 09:18:32;;;;;;;5.30;3.10;;;24.10;90.00;;;;;;5072272;28;19905;-64
2021/05/31 09:21:09;;;;;;;5.15;3.05;;;24.20;90.00;;;;;;5082858;28;20028;-63
2021/05/31 09:23:36;;;;;;;5.28;3.28;;;24.10;90.20;;;;;;5074042;28;20036;-68
2021/05/31 09:26:05;;;;;;;11.30;3.35;;;24.10;90.20;;;;;;5072055;28;20029;-70
2021/05/31 09:28:31;;;;;;;7.47;2.90;;;24.00;90.40;;;;;;5071936;28;20024;-65
2021/05/31 09:30:57;;;;;;;5.65;2.97;;;24.10;90.40;;;;;;5072304;28;20082;-70
2021/05/31 09:33:22;;;;;;;5.78;3.05;;;24.10;90.20;;;;;;5072189;28;20464;-73
2021/05/31 09:35:50;;;;;;;6.35;3.10;;;24.00;90.30;;;;;;5071827;28;20050;-73
2021/05/31 09:38:16;;;;;;;4.60;2.95;;;23.90;90.40;;;;;;5071916;28;20086;-64
2021/05/31 09:40:54;;;;;;;4.88;2.88;;;23.90;90.50;;;;;;5071685;28;20027;-71
2021/05/31 09:43:23;;;;;;;3.67;2.78;;;24.00;90.50;;;;;;5072923;28;20021;-66
2021/05/31 09:45:49;;;;;;;6.10;2.80;;;23.90;90.60;;;;;;5091916;28;20071;-64
2021/05/31 09:48:15;;;;;;;7.32;3.10;;;23.90;90.60;;;;;;5092047;28;20050;-70
2021/05/31 09:50:51;;;;;;;5.88;3.10;;;24.10;90.70;;;;;;5090406;28;20024;-65
2021/05/31 09:53:17;;;;;;;4.40;3.00;;;24.10;90.40;;;;;;5068623;28;20052;-70
2021/05/31 09:55:46;;;;;;;3.53;2.70;;;24.10;90.30;;;;;;5071638;28;20032;-64
2021/05/31 09:58:16;;;;;;;4.95;2.75;;;24.10;90.40;;;;;;5071955;28;20484;-69
2021/05/31 10:00:54;;;;;;;4.90;3.10;;;24.10;90.50;;;;;;5071540;28;20093;-69
2021/05/31 10:03:42;;;;;;;4.38;2.88;;;24.20;90.40;;;;;;5070604;28;20027;-70
2021/05/31 10:06:19;;;;;;;5.55;2.78;;;24.20;90.30;;;;;;5074105;28;20047;-66
2021/05/31 10:08:46;;;;;;;3.78;2.35;;;24.20;90.40;;;;;;5090958;28;20051;-65
2021/05/31 10:11:12;;;;;;;3.45;2.70;;;24.30;90.40;;;;;;5078684;28;20030;-68
2021/05/31 10:13:41;;;;;;;4.43;3.03;;;24.30;90.40;;;;;;5071436;28;20385;-67
2021/05/31 10:16:08;;;;;;;3.97;2.97;;;24.40;90.40;;;;;;5074751;28;20495;-72
2021/05/31 10:18:40;;;;;;;4.40;2.97;;;24.40;90.30;;;;;;5071182;28;20029;-73
2021/05/31 10:21:07;;;;;;;5.32;2.97;;;24.40;90.40;;;;;;5071639;28;20057;-64
2021/05/31 10:23:32;;;;;;;6.72;2.42;;;24.30;90.40;;;;;;5071218;28;20435;-63
2021/05/31 10:26:01;;;;;;;2.42;2.22;;;24.10;90.60;;;;;;5071315;28;20032;-64
2021/05/31 10:28:39;;;;;;;5.43;2.78;;;24.00;90.70;;;;;;5073317;28;20021;-65
2021/05/31 10:31:07;;;;;;;3.80;2.42;;;23.90;90.70;;;;;;5072209;28;20031;-63
2021/05/31 10:33:38;;;;;;;4.03;2.58;;;23.90;90.70;;;;;;5051018;28;20032;-64
2021/05/31 10:36:20;;;;;;;4.45;2.70;;;24.00;90.90;;;;;;5050054;28;20048;-64
2021/05/31 10:38:50;;;;;;;3.80;2.50;;;23.90;91.00;;;;;;5049463;28;20048;-63
2021/05/31 10:41:19;;;;;;;6.32;2.20;;;24.00;91.00;;;;;;5050461;28;20024;-71
2021/05/31 10:43:54;;;;;;;4.10;2.80;;;23.90;90.90;;;;;;5056852;28;20032;-63
2021/05/31 10:46:25;;;;;;;3.22;2.25;;;23.90;91.00;;;;;;5071293;28;20502;-64
2021/05/31 10:48:51;;;;;;;4.45;2.63;;;23.90;91.00;;;;;;5070741;28;20025;-64
2021/05/31 10:51:23;;;;;;;4.82;2.40;;;23.90;90.80;;;;;;5071097;28;20032;-64
2021/05/31 10:53:49;;;;;;;4.82;2.63;;;23.90;90.80;;;;;;5070787;28;20036;-64
2021/05/31 10:56:17;;;;;;;4.28;2.70;;;23.90;90.80;;;;;;5070996;28;20025;-67
2021/05/31 10:58:51;;;;;;;4.40;2.30;;;23.90;90.80;;;;;;5070932;28;20044;-64
2021/05/31 11:01:18;;;;;;;4.25;2.60;;;23.90;91.00;;;;;;5070981;28;20021;-64
2021/05/31 11:03:53;;;;;;;3.90;2.40;;;23.80;90.90;;;;;;5070711;28;20032;-64
2021/05/31 11:06:23;;;;;;;3.30;2.28;;;23.90;90.80;;;;;;5072299;28;20044;-66
2021/05/31 11:08:54;;;;;;;3.70;2.78;;;23.90;90.80;;;;;;5077848;28;20027;-64
2021/05/31 11:11:38;;;;;;;3.25;2.55;;;23.90;90.70;;;;;;5090078;28;20383;-65
2021/05/31 11:14:05;;;;;;;3.92;2.33;;;23.90;90.70;;;;;;5091139;28;20028;-65
2021/05/31 11:16:34;;;;;;;3.10;2.30;;;24.00;90.70;;;;;;5090827;28;20028;-64
2021/05/31 11:19:04;;;;;;;4.68;2.20;;;24.00;90.60;;;;;;5080176;28;20028;-64
2021/05/31 11:21:41;;;;;;;3.28;2.30;;;24.00;90.70;;;;;;5072016;28;20442;-64
2021/05/31 11:24:16;;;;;;;3.63;2.55;;;23.90;90.80;;;;;;5076664;28;20028;-63
2021/05/31 11:26:43;;;;;;;3.42;2.20;;;24.00;90.60;;;;;;5074052;28;20033;-64
2021/05/31 11:29:10;;;;;;;4.85;2.35;;;24.00;90.70;;;;;;5075705;28;20115;-64
2021/05/31 11:31:38;;;;;;;3.75;2.35;;;23.90;90.50;;;;;;5072795;28;20020;-63
2021/05/31 11:34:05;;;;;;;2.60;2.38;;;24.00;90.60;;;;;;5070356;28;20031;-64
2021/05/31 11:36:40;;;;;;;3.15;2.42;;;24.00;90.60;;;;;;5072798;28;20023;-64
2021/05/31 11:39:16;;;;;;;3.00;2.20;;;24.00;90.60;;;;;;5070826;28;20029;-63
2021/05/31 11:41:45;;;;;;;3.60;2.63;;;24.00;90.50;;;;;;5073310;28;20073;-63
2021/05/31 11:44:14;;;;;;;2.90;2.38;;;24.00;90.40;;;;;;5073813;28;20020;-63
2021/05/31 11:46:45;;;;;;;4.45;2.70;;;24.00;90.30;;;;;;5073749;28;20029;-63
2021/05/31 11:49:11;;;;;;;2.47;2.17;;;24.00;90.40;;;;;;5073872;28;20361;-63
2021/05/31 11:51:37;;;;;;;5.30;2.85;;;24.00;90.70;;;;;;5073804;28;20032;-64
2021/05/31 11:54:04;;;;;;;2.65;2.10;;;24.00;90.40;;;;;;5072759;28;20020;-63
2021/05/31 11:56:34;;;;;;;2.40;2.08;;;24.00;90.40;;;;;;5073333;28;20107;-63
2021/05/31 11:59:00;;;;;;;2.15;1.92;;;24.10;90.40;;;;;;5073511;28;20020;-63
2021/05/31 12:01:28;;;;;;;2.70;2.30;;;24.00;90.40;;;;;;5075267;28;20464;-63
2021/05/31 12:03:55;;;;;;;2.55;2.10;;;24.00;90.40;;;;;;5070871;28;20060;-69
2021/05/31 12:06:21;;;;;;;3.38;2.25;;;24.10;90.40;;;;;;5072608;28;20021;-65
2021/05/31 12:08:47;;;;;;;2.45;2.10;;;24.00;90.40;;;;;;5072243;28;20017;-69
2021/05/31 12:11:27;;;;;;;3.28;2.00;;;24.00;90.70;;;;;;5072417;28;20498;-66
2021/05/31 12:14:01;;;;;;;3.75;2.50;;;24.10;90.40;;;;;;5074189;28;20036;-63
2021/05/31 12:16:27;;;;;;;2.55;2.20;;;24.00;90.30;;;;;;5089314;28;20033;-68
2021/05/31 12:18:52;;;;;;;3.22;2.33;;;24.10;90.30;;;;;;5072930;28;20040;-70
2021/05/31 12:21:18;;;;;;;8.25;2.30;;;24.10;90.30;;;;;;5073064;28;20118;-69
2021/05/31 12:23:51;;;;;;;3.28;2.55;;;24.10;90.50;;;;;;5075058;28;20032;-67
2021/05/31 12:26:22;;;;;;;4.90;2.25;;;24.20;90.40;;;;;;5073165;28;20130;-64
2021/05/31 12:28:52;;;;;;;3.85;2.35;;;24.20;90.40;;;;;;5073562;28;20355;-68
2021/05/31 12:31:19;;;;;;;2.63;2.13;;;24.20;90.50;;;;;;5073459;28;20362;-69
2021/05/31 12:33:45;;;;;;;3.88;2.70;;;24.30;90.60;;;;;;5073393;28;20380;-68
2021/05/31 12:36:10;;;;;;;3.28;2.33;;;24.20;90.50;;;;;;5073077;28;20024;-68
2021/05/31 12:38:39;;;;;;;3.25;2.17;;;24.30;90.50;;;;;;5073264;28;20020;-68
2021/05/31 12:41:05;;;;;;;2.75;2.30;;;24.30;90.50;;;;;;5073141;28;20486;-70
2021/05/31 12:43:32;;;;;;;2.42;1.88;;;24.30;90.30;;;;;;5072956;28;20109;-67
2021/05/31 12:46:00;;;;;;;2.67;2.25;;;24.30;90.30;;;;;;5073107;28;20056;-70
2021/05/31 12:48:26;;;;;;;3.13;2.13;;;24.40;90.50;;;;;;5073242;28;20487;-68
2021/05/31 12:50:56;;;;;;;3.25;2.20;;;24.40;90.40;;;;;;5072054;28;20021;-66
2021/05/31 12:53:22;;;;;;;3.13;2.42;;;24.40;90.50;;;;;;5072529;28;20120;-70
2021/05/31 12:55:49;;;;;;;3.72;2.10;;;24.40;90.30;;;;;;5072029;28;20543;-66
2021/05/31 12:58:18;;;;;;;3.17;2.20;;;24.50;90.60;;;;;;5072936;28;20029;-65
2021/05/31 13:00:45;;;;;;;3.75;2.40;;;24.40;90.70;;;;;;5074045;28;20493;-71
2021/05/31 13:03:13;;;;;;;3.05;2.50;;;24.40;90.70;;;;;;5073037;28;20052;-67
2021/05/31 13:05:47;;;;;;;4.45;2.65;;;24.50;90.60;;;;;;5071822;28;20036;-69
2021/05/31 13:08:13;;;;;;;4.25;2.60;;;24.60;90.40;;;;;;5086041;28;20035;-68
2021/05/31 13:10:42;;;;;;;5.30;3.13;;;24.60;90.50;;;;;;5092846;28;20021;-68
2021/05/31 13:13:13;;;;;;;3.13;2.33;;;24.60;90.50;;;;;;5092970;28;20070;-67
2021/05/31 13:15:52;;;;;;;4.00;2.50;;;24.60;90.40;;;;;;5091159;28;20020;-68
2021/05/31 13:18:22;;;;;;;3.58;2.72;;;24.60;90.30;;;;;;5084223;28;20456;-68
2021/05/31 13:20:53;;;;;;;2.97;2.60;;;24.60;90.50;;;;;;5072062;28;20809;-68
2021/05/31 13:23:27;;;;;;;2.63;2.42;;;24.70;90.60;;;;;;5089310;28;20032;-69
2021/05/31 13:25:55;;;;;;;3.00;2.70;;;24.70;90.50;;;;;;5092199;28;20036;-70
2021/05/31 13:28:30;;;;;;;3.42;2.63;;;24.70;90.90;;;;;;5092507;28;20028;-71
2021/05/31 13:31:02;;;;;;;3.20;2.90;;;24.70;90.90;;;;;;5093010;28;20051;-70
2021/05/31 13:33:29;;;;;;;3.45;2.42;;;24.80;90.70;;;;;;5092037;28;20100;-67
2021/05/31 13:35:57;;;;;;;3.05;2.75;;;24.80;90.70;;;;;;5092498;28;20114;-67
2021/05/31 13:38:27;;;;;;;3.20;2.85;;;24.70;90.80;;;;;;5092592;28;20484;-68
2021/05/31 13:40:53;;;;;;;4.75;2.75;;;24.80;90.70;;;;;;5092442;28;20027;-69
2021/05/31 13:43:22;;;;;;;2.72;2.53;;;24.80;90.80;;;;;;5092107;28;20032;-68
2021/05/31 13:45:49;;;;;;;4.15;2.40;;;24.80;90.80;;;;;;5088324;28;20115;-68
2021/05/31 13:48:17;;;;;;;4.40;2.80;;;24.90;90.70;;;;;;5071957;28;20036;-67
2021/05/31 13:50:45;;;;;;;3.22;2.40;;;24.90;90.90;;;;;;5071584;28;20362;-67
2021/05/31 13:53:11;;;;;;;3.30;2.55;;;24.90;90.60;;;;;;5086767;28;20032;-67
2021/05/31 13:55:37;;;;;;;4.15;2.60;;;24.80;90.50;;;;;;5079505;28;20082;-67
2021/05/31 13:58:04;;;;;;;2.65;2.15;;;24.70;90.60;;;;;;5072445;28;20071;-67
2021/05/31 14:00:31;;;;;;;3.13;2.55;;;24.70;90.50;;;;;;5080313;28;20493;-66
2021/05/31 14:02:58;;;;;;;4.80;2.42;;;24.70;90.50;;;;;;5092213;28;20106;-67
2021/05/31 14:05:29;;;;;;;2.55;2.20;;;24.80;90.50;;;;;;5090315;28;20421;-67
2021/05/31 14:07:56;;;;;;;3.25;2.33;;;24.80;90.40;;;;;;5071982;28;20024;-67
2021/05/31 14:10:23;;;;;;;2.80;2.22;;;24.80;90.50;;;;;;5071628;28;20048;-67
2021/05/31 14:12:49;;;;;;;4.05;2.58;;;24.80;90.50;;;;;;5071316;28;20020;-67
2021/05/31 14:15:17;;;;;;;2.78;2.40;;;24.80;90.40;;;;;;5071581;28;20037;-67
2021/05/31 14:17:43;;;;;;;2.63;2.33;;;24.90;90.60;;;;;;5070750;28;20099;-67
2021/05/31 14:20:11;;;;;;;3.97;2.33;;;24.80;90.50;;;;;;5071371;28;20103;-67
2021/05/31 14:22:39;;;;;;;3.55;2.25;;;24.90;90.50;;;;;;5081994;28;20464;-67
2021/05/31 14:25:06;;;;;;;9.25;2.70;;;24.90;90.60;;;;;;5076186;28;20050;-66
2021/05/31 14:27:32;;;;;;;6.78;3.20;;;25.10;83.70;;;;;;5071165;28;20035;-65
2021/05/31 14:29:58;;;;;;;5.65;2.92;;;25.20;81.80;;;;;;5071026;28;20033;-65
2021/05/31 14:32:24;;;;;;;5.03;3.08;;;25.10;81.70;;;;;;5071587;28;20048;-65
2021/05/31 14:34:50;;;;;;;4.15;3.08;;;25.20;82.20;;;;;;5070989;28;20484;-64
2021/05/31 14:37:15;;;;;;;5.78;2.85;;;25.30;82.40;;;;;;5071343;28;20024;-65
2021/05/31 14:39:41;;;;;;;7.68;3.38;;;25.30;81.90;;;;;;5071077;28;20476;-66
2021/05/31 14:42:08;;;;;;;10.43;3.08;;;25.20;81.80;;;;;;5071257;28;20025;-69
2021/05/31 14:44:34;;;;;;;4.97;3.03;;;25.10;83.00;;;;;;5070919;28;20472;-69
2021/05/31 14:46:59;;;;;;;4.22;2.90;;;25.10;84.60;;;;;;5083325;28;20085;-67
2021/05/31 14:49:26;;;;;;;5.03;2.92;;;25.00;85.70;;;;;;5091742;28;20077;-68
2021/05/31 14:51:53;;;;;;;3.42;2.60;;;24.90;86.50;;;;;;5083807;28;20571;-68
2021/05/31 14:54:19;;;;;;;4.93;2.53;;;24.90;87.60;;;;;;5080413;28;20491;-69
2021/05/31 14:56:45;;;;;;;3.55;2.78;;;24.90;87.50;;;;;;5092756;28;20444;-68
2021/05/31 14:59:11;;;;;;;5.03;2.90;;;25.00;87.70;;;;;;5095367;28;20051;-68
2021/05/31 15:01:38;;;;;;;4.28;2.80;;;25.00;87.90;;;;;;5094653;28;20034;-68
2021/05/31 15:04:04;;;;;;;5.20;2.90;;;25.10;88.60;;;;;;5095211;28;20441;-66
2021/05/31 15:06:29;;;;;;;3.75;2.50;;;25.00;88.40;;;;;;5095056;28;20095;-65
2021/05/31 15:08:55;;;;;;;2.70;2.38;;;25.10;88.50;;;;;;5095521;28;20415;-66
2021/05/31 15:11:21;;;;;;;4.55;2.78;;;25.10;88.60;;;;;;5095100;28;20077;-65
2021/05/31 15:13:46;;;;;;;4.25;2.30;;;25.10;88.70;;;;;;5093882;28;20016;-65
2021/05/31 15:16:12;;;;;;;3.58;2.45;;;25.10;88.70;;;;;;5095064;28;20456;-66
2021/05/31 15:18:38;;;;;;;4.15;2.70;;;25.10;88.80;;;;;;5094801;28;20028;-66
2021/05/31 15:21:04;;;;;;;2.67;2.38;;;25.10;88.80;;;;;;5094653;28;20091;-67
2021/05/31 15:23:30;;;;;;;2.85;2.50;;;25.10;89.00;;;;;;5074287;28;20036;-68
2021/05/31 15:25:55;;;;;;;4.85;2.40;;;25.20;89.40;;;;;;5074590;28;20477;-66
2021/05/31 15:28:21;;;;;;;6.10;2.63;;;25.10;89.30;;;;;;5074477;28;20039;-66
2021/05/31 15:30:47;;;;;;;3.65;2.92;;;25.10;89.90;;;;;;5074221;28;20419;-67
2021/05/31 15:33:12;;;;;;;3.10;2.33;;;25.00;89.20;;;;;;5074548;28;20025;-67
2021/05/31 15:35:38;;;;;;;7.03;2.92;;;25.00;89.50;;;;;;5073833;28;20042;-67
2021/05/31 15:38:04;;;;;;;5.03;2.67;;;25.10;90.10;;;;;;5074089;28;20073;-66
2021/05/31 15:40:30;;;;;;;2.78;2.47;;;25.10;89.60;;;;;;5074062;28;20453;-65
2021/05/31 15:42:56;;;;;;;3.58;2.70;;;25.10;89.70;;;;;;5075614;28;20035;-65
2021/05/31 15:45:23;;;;;;;5.50;2.75;;;25.10;89.80;;;;;;5074091;28;20123;-66
2021/05/31 15:47:49;;;;;;;2.90;2.70;;;25.10;89.80;;;;;;5074185;28;20036;-66
2021/05/31 15:50:19;;;;;;;6.82;3.25;;;25.40;86.30;;;;;;5077995;28;20029;-66
2021/05/31 15:52:45;;;;;;;4.15;3.13;;;25.50;83.10;;;;;;5074129;28;20060;-63
2021/05/31 15:55:12;;;;;;;4.43;3.22;;;25.60;80.70;;;;;;5074110;28;20028;-65
2021/05/31 15:57:38;;;;;;;5.68;3.65;;;25.50;80.40;;;;;;5073532;28;20025;-64
2021/05/31 16:00:05;;;;;;;7.70;3.58;;;25.40;82.00;;;;;;5073832;28;20024;-63
2021/05/31 16:02:31;;;;;;;4.28;3.17;;;25.40;81.10;;;;;;5073042;28;20024;-64
2021/05/31 16:04:57;;;;;;;7.18;3.28;;;25.40;81.20;;;;;;5075090;28;20062;-64
2021/05/31 16:07:23;;;;;;;5.97;3.75;;;25.30;78.90;;;;;;5073612;28;20028;-64
2021/05/31 16:09:49;;;;;;;6.93;3.40;;;25.20;79.00;;;;;;5073630;28;20115;-65
2021/05/31 16:12:16;;;;;;;5.38;3.53;;;25.20;78.70;;;;;;5073881;28;20024;-64
2021/05/31 16:14:42;;;;;;;6.70;3.60;;;25.10;79.30;;;;;;5085134;28;20047;-65
2021/05/31 16:17:08;;;;;;;8.27;3.20;;;25.20;79.20;;;;;;5091538;28;20031;-67
2021/05/31 16:19:35;;;;;;;5.82;3.22;;;25.10;79.40;;;;;;5092355;28;20024;-68
2021/05/31 16:22:04;;;;;;;5.43;3.58;;;25.10;79.50;;;;;;5089661;28;20047;-67
2021/05/31 16:24:38;;;;;;;6.90;3.58;;;25.10;79.50;;;;;;5072028;28;20052;-67
2021/05/31 16:27:04;;;;;;;5.40;3.25;;;25.10;80.10;;;;;;5071691;28;20107;-68
2021/05/31 16:29:30;;;;;;;4.38;2.95;;;25.10;79.80;;;;;;5072911;28;20558;-67
2021/05/31 16:31:56;;;;;;;5.47;3.47;;;25.10;79.70;;;;;;5073488;28;20028;-68
2021/05/31 16:34:21;;;;;;;4.85;3.17;;;25.10;80.20;;;;;;5073433;28;20025;-66
2021/05/31 16:36:48;;;;;;;3.67;3.10;;;25.20;80.10;;;;;;5072940;28;20447;-66
2021/05/31 16:39:14;;;;;;;7.20;3.35;;;25.20;79.60;;;;;;5073269;28;20124;-67
2021/05/31 16:41:39;;;;;;;5.18;3.20;;;25.20;79.40;;;;;;5073043;28;20089;-66
2021/05/31 16:44:05;;;;;;;6.05;2.90;;;25.10;79.50;;;;;;5073156;28;20068;-65
2021/05/31 16:46:31;;;;;;;3.42;3.13;;;25.20;80.10;;;;;;5077590;28;20042;-65
2021/05/31 16:48:56;;;;;;;5.68;2.95;;;25.20;79.60;;;;;;5091673;28;20035;-65
2021/05/31 16:51:22;;;;;;;4.75;3.30;;;25.10;79.00;;;;;;5072748;28;20024;-65
2021/05/31 16:53:49;;;;;;;5.22;3.20;;;25.10;78.60;;;;;;5071489;28;20025;-66
2021/05/31 16:56:15;;;;;;;7.40;3.15;;;25.30;78.50;;;;;;5071085;28;20021;-67
2021/05/31 16:58:41;;;;;;;5.82;3.13;;;25.10;78.20;;;;;;5072572;28;20028;-65
2021/05/31 17:01:08;;;;;;;5.10;3.17;;;25.00;78.70;;;;;;5090758;28;20103;-67
2021/05/31 17:03:35;;;;;;;4.03;3.00;;;25.10;78.80;;;;;;5072477;28;20031;-68
2021/05/31 17:06:06;;;;;;;5.68;2.95;;;25.10;78.70;;;;;;5071750;28;20435;-69
2021/05/31 17:08:32;;;;;;;6.85;3.17;;;25.00;79.30;;;;;;5072294;28;20025;-69
2021/05/31 17:21:28;;;;;;;5.03;3.00;;;24.90;83.70;;;;;;5092752;28;20081;-69
2021/05/31 17:23:53;;;;;;;3.80;3.00;;;25.00;83.80;;;;;;5092874;28;20024;-70
2021/05/31 17:26:19;;;;;;;4.75;3.50;;;25.00;84.20;;;;;;5092497;28;20051;-66
2021/05/31 17:28:45;;;;;;;5.03;3.25;;;25.10;84.30;;;;;;5092226;28;20048;-67
2021/05/31 17:33:38;;;;;;;5.63;2.90;;;25.10;84.20;;;;;;5083639;28;20468;-65
2021/05/31 17:36:05;;;;;;;3.60;2.92;;;25.10;84.60;;;;;;5071954;28;20037;-67
2021/05/31 17:38:31;;;;;;;3.20;2.70;;;25.10;85.30;;;;;;5072736;28;20477;-66
2021/05/31 17:40:57;;;;;;;4.05;3.13;;;25.20;84.90;;;;;;5071956;28;20431;-65
2021/05/31 17:43:22;;;;;;;3.78;2.80;;;25.10;85.30;;;;;;5071956;28;20020;-65
2021/05/31 17:45:49;;;;;;;5.97;2.83;;;25.00;84.90;;;;;;5071606;28;20044;-66
2021/05/31 17:48:15;;;;;;;3.83;2.95;;;24.90;85.20;;;;;;5071815;28;20029;-66
2021/05/31 17:50:41;;;;;;;3.75;2.70;;;24.90;85.20;;;;;;5071618;28;20074;-66
2021/05/31 17:53:07;;;;;;;4.28;3.05;;;24.90;85.10;;;;;;5071790;28;20103;-66
2021/05/31 17:55:33;;;;;;;4.82;3.05;;;24.90;85.20;;;;;;5087616;28;20545;-66
2021/05/31 17:58:02;;;;;;;3.22;2.83;;;24.90;85.20;;;;;;5091945;28;20032;-67
2021/05/31 18:00:27;;;;;;;4.93;3.10;;;24.90;84.90;;;;;;5092357;28;20028;-66
2021/05/31 18:02:53;;;;;;;4.25;3.45;;;24.90;85.10;;;;;;5085912;28;20380;-65
2021/05/31 18:05:22;;;;;;;4.30;3.30;;;24.90;85.50;;;;;;5071022;28;20119;-65
2021/05/31 18:07:47;;;;;;;3.38;3.05;;;24.90;85.60;;;;;;5072519;28;20623;-65
2021/05/31 18:10:14;;;;;;;5.28;3.00;;;24.90;85.40;;;;;;5071617;28;20472;-67
2021/05/31 18:12:41;;;;;;;4.35;2.80;;;24.90;86.10;;;;;;5070587;28;20069;-66
2021/05/31 18:15:09;;;;;;;5.85;3.33;;;24.80;85.50;;;;;;5071325;28;20532;-68
2021/05/31 18:17:37;;;;;;;9.55;3.85;;;24.80;85.70;;;;;;5071329;28;20036;-64
2021/05/31 18:20:04;;;;;;;7.30;3.72;;;24.80;85.00;;;;;;5071498;28;20028;-65
2021/05/31 18:22:32;;;;;;;4.43;3.58;;;24.70;84.70;;;;;;5071275;28;20110;-65
2021/05/31 18:24:57;;;;;;;7.97;3.90;;;24.60;83.70;;;;;;5071442;28;20032;-67
2021/05/31 18:27:23;;;;;;;6.32;3.28;;;24.60;84.00;;;;;;5071649;28;20021;-65
2021/05/31 18:29:49;;;;;;;4.40;3.30;;;24.60;83.40;;;;;;5071006;28;20028;-64
2021/05/31 18:32:14;;;;;;;4.25;3.25;;;24.60;82.20;;;;;;5071364;28;20043;-62
2021/05/31 18:34:41;;;;;;;5.07;3.13;;;24.50;82.60;;;;;;5070821;28;20036;-64
2021/05/31 18:37:22;;;;;;;6.10;3.55;;;24.60;84.00;;;;;;5073643;28;20024;-65
2021/05/31 18:39:49;;;;;;;3.92;3.47;;;24.60;84.10;;;;;;5090857;28;20080;-65
2021/05/31 18:42:15;;;;;;;4.57;3.25;;;24.60;83.90;;;;;;5091184;28;20028;-66
2021/05/31 18:44:41;;;;;;;3.67;3.03;;;24.70;84.40;;;;;;5091011;28;20038;-62
2021/05/31 18:47:06;;;;;;;3.97;3.17;;;24.80;85.70;;;;;;5080662;28;20055;-63
2021/05/31 18:49:32;;;;;;;4.75;3.20;;;24.90;85.10;;;;;;5070715;28;20082;-65
2021/05/31 18:51:57;;;;;;;4.38;3.22;;;24.80;85.60;;;;;;5071384;28;20046;-65
2021/05/31 18:54:23;;;;;;;4.93;3.15;;;24.80;85.90;;;;;;5085268;28;20024;-64
2021/05/31 18:56:50;;;;;;;7.70;3.00;;;24.70;85.60;;;;;;5091160;28;20466;-67
2021/05/31 18:59:18;;;;;;;4.28;2.95;;;24.70;85.80;;;;;;5090042;28;20019;-65
2021/05/31 19:01:44;;;;;;;3.47;2.40;;;24.60;85.70;;;;;;5091017;28;20035;-67
2021/05/31 19:04:09;;;;;;;3.67;2.78;;;24.70;85.90;;;;;;5072547;28;20024;-66
2021/05/31 19:06:35;;;;;;;2.90;2.60;;;24.60;86.00;;;;;;5069563;28;20033;-65
2021/05/31 19:09:01;;;;;;;3.28;2.50;;;24.60;86.00;;;;;;5071080;28;20021;-67
2021/05/31 19:11:26;;;;;;;2.97;2.45;;;24.60;86.00;;;;;;5071321;28;20082;-66
2021/05/31 19:13:52;;;;;;;2.80;2.60;;;24.60;86.10;;;;;;5070804;28;20021;-63
2021/05/31 19:16:18;;;;;;;2.85;2.53;;;24.60;86.10;;;;;;5071028;28;20028;-64
2021/05/31 19:18:44;;;;;;;2.88;2.55;;;24.60;86.20;;;;;;5070761;28;20377;-63
2021/05/31 19:21:10;;;;;;;3.60;3.08;;;24.60;86.20;;;;;;5075078;28;20103;-66
2021/05/31 19:23:37;;;;;;;3.42;2.80;;;24.60;86.20;;;;;;5088804;28;20111;-68
2021/05/31 19:26:04;;;;;;;4.65;2.50;;;24.60;86.00;;;;;;5090909;28;20374;-66
2021/05/31 19:28:30;;;;;;;3.13;2.80;;;24.60;86.50;;;;;;5090620;28;20494;-67
2021/05/31 19:30:56;;;;;;;2.92;2.60;;;24.60;86.40;;;;;;5091200;28;20032;-68
2021/05/31 19:33:22;;;;;;;4.30;2.85;;;24.60;86.30;;;;;;5079210;28;20032;-66
2021/05/31 19:35:51;;;;;;;4.00;2.70;;;24.60;87.30;;;;;;5084353;28;20405;-66